Cordova, Tennessee
Current Conditions -  °F | °C
As of 10:50 AM on Saturday 22 Nov 2014 (Local Time) from KOLV Reporting Station
Broken Clouds Broken Clouds  
Wind Chill: 18°   Ceiling: 25000
Heat Index: 18°   Visibility: 10mi
Dew Point:   Wind: 17mph
Humidity: 42%   Direction: 190°S
Pressure: 30.22"   Gusts: 25mph
Location:  35.16°N, 89.78°W
Report Text: KOLV 221650Z 19015G22KT 10SM SCT055 BKN250 18/05 A3022
Loading
Personal Weather Stations






























Interactive Weather Map New forecast layout! Learn more

10-Day Weather Forecast

Advertisements
Track Severe Weather on mobile